CNF215 GCLP-GCFV
Flight info
| Callsign | CNF215 |
|---|---|
| Flight time | 0h 32m |
| Altitude | 12000 |
| Route | KOPUD |
| Aircraft | AT76/M-SDFGIRY/S |
Departure
| Time | 2026-04-27 20:20 |
|---|---|
| Airport | Gran Canaria Airport (GCLP) |
Arrival
| Time | 2026-04-27 20:53 |
|---|---|
| Airport | Fuerteventura Airport (GCFV) |
| Time | Latitude | Longitude | Altitude | Speed | Heading |
|---|---|---|---|---|---|
| 2026-04-27 20:06 | 27.94086 | -15.38702 | 81 ft | 0 kts | 291° |
| 2026-04-27 20:07 | 27.94086 | -15.38701 | 81 ft | 0 kts | 291° |
| 2026-04-27 20:08 | 27.94085 | -15.38701 | 81 ft | 0 kts | 291° |
| 2026-04-27 20:09 | 27.94085 | -15.38700 | 81 ft | 0 kts | 291° |
| 2026-04-27 20:13 | 27.94085 | -15.38699 | 81 ft | 0 kts | 291° |
| 2026-04-27 20:14 | 27.94080 | -15.38685 | 83 ft | 7 kts | 292° |
| 2026-04-27 20:15 | 27.94050 | -15.38600 | 68 ft | 11 kts | 285° |
| 2026-04-27 20:15 | 27.94048 | -15.38582 | 70 ft | 1 kts | 263° |
| 2026-04-27 20:15 | 27.94046 | -15.38611 | 70 ft | 7 kts | 259° |
| 2026-04-27 20:15 | 27.93999 | -15.38660 | 72 ft | 14 kts | 200° |
| 2026-04-27 20:16 | 27.93877 | -15.38712 | 83 ft | 23 kts | 201° |
| 2026-04-27 20:16 | 27.93712 | -15.38784 | 83 ft | 28 kts | 201° |
| 2026-04-27 20:16 | 27.93523 | -15.38866 | 80 ft | 22 kts | 197° |
| 2026-04-27 20:16 | 27.93431 | -15.38814 | 70 ft | 19 kts | 109° |
| 2026-04-27 20:17 | 27.93360 | -15.38774 | 69 ft | 18 kts | 203° |
| 2026-04-27 20:17 | 27.93214 | -15.38842 | 68 ft | 26 kts | 202° |
| 2026-04-27 20:17 | 27.93039 | -15.38924 | 70 ft | 28 kts | 202° |
| 2026-04-27 20:17 | 27.92915 | -15.38979 | 69 ft | 30 kts | 202° |
| 2026-04-27 20:18 | 27.92658 | -15.39093 | 86 ft | 30 kts | 201° |
| 2026-04-27 20:18 | 27.92459 | -15.39181 | 92 ft | 31 kts | 201° |
| 2026-04-27 20:18 | 27.92287 | -15.39257 | 96 ft | 20 kts | 202° |
| 2026-04-27 20:18 | 27.92142 | -15.39307 | 94 ft | 24 kts | 183° |
| 2026-04-27 20:19 | 27.91961 | -15.39299 | 88 ft | 27 kts | 175° |
| 2026-04-27 20:19 | 27.91952 | -15.39207 | 81 ft | 0 kts | 26° |
| 2026-04-27 20:19 | 27.92012 | -15.39181 | 82 ft | 38 kts | 21° |
| 2026-04-27 20:19 | 27.92476 | -15.38980 | 69 ft | 105 kts | 23° |
| 2026-04-27 20:20 | 27.93284 | -15.38594 | 221 ft | 144 kts | 20° |
| 2026-04-27 20:20 | 27.94280 | -15.38141 | 650 ft | 159 kts | 19° |
| 2026-04-27 20:20 | 27.95296 | -15.37715 | 1389 ft | 149 kts | 15° |
| 2026-04-27 20:20 | 27.96263 | -15.37282 | 1887 ft | 148 kts | 17° |
| 2026-04-27 20:21 | 27.97173 | -15.36850 | 2394 ft | 138 kts | 22° |
| 2026-04-27 20:21 | 27.98114 | -15.36393 | 2569 ft | 150 kts | 15° |
| 2026-04-27 20:21 | 27.99075 | -15.36029 | 3062 ft | 142 kts | 13° |
| 2026-04-27 20:21 | 27.99977 | -15.35679 | 3526 ft | 136 kts | 14° |
| 2026-04-27 20:22 | 28.00864 | -15.35323 | 3923 ft | 135 kts | 15° |
| 2026-04-27 20:22 | 28.01744 | -15.34960 | 4313 ft | 134 kts | 16° |
| 2026-04-27 20:22 | 28.02620 | -15.34587 | 4688 ft | 135 kts | 17° |
| 2026-04-27 20:22 | 28.03497 | -15.34205 | 5054 ft | 135 kts | 19° |
| 2026-04-27 20:23 | 28.04360 | -15.33776 | 5406 ft | 136 kts | 20° |
| 2026-04-27 20:23 | 28.05229 | -15.33350 | 5745 ft | 137 kts | 20° |
| 2026-04-27 20:23 | 28.06108 | -15.32920 | 6080 ft | 138 kts | 20° |
| 2026-04-27 20:23 | 28.06976 | -15.32504 | 6434 ft | 137 kts | 20° |
| 2026-04-27 20:24 | 28.07862 | -15.32086 | 6733 ft | 138 kts | 20° |
| 2026-04-27 20:24 | 28.08759 | -15.31668 | 7042 ft | 139 kts | 20° |
| 2026-04-27 20:24 | 28.09634 | -15.31199 | 7321 ft | 142 kts | 37° |
| 2026-04-27 20:24 | 28.10032 | -15.30155 | 7581 ft | 152 kts | 75° |
| 2026-04-27 20:25 | 28.10233 | -15.28984 | 7874 ft | 154 kts | 73° |
| 2026-04-27 20:25 | 28.10397 | -15.27778 | 8164 ft | 156 kts | 78° |
| 2026-04-27 20:25 | 28.10465 | -15.26547 | 8475 ft | 158 kts | 83° |
| 2026-04-27 20:25 | 28.10463 | -15.25294 | 8774 ft | 160 kts | 86° |
| 2026-04-27 20:26 | 28.10425 | -15.24033 | 9088 ft | 160 kts | 89° |
| 2026-04-27 20:26 | 28.10370 | -15.22783 | 9387 ft | 162 kts | 89° |
| 2026-04-27 20:26 | 28.10316 | -15.21507 | 9690 ft | 163 kts | 89° |
| 2026-04-27 20:26 | 28.10263 | -15.20223 | 9993 ft | 163 kts | 88° |
| 2026-04-27 20:27 | 28.10216 | -15.18931 | 10239 ft | 165 kts | 88° |
| 2026-04-27 20:27 | 28.10177 | -15.17626 | 10490 ft | 167 kts | 88° |
| 2026-04-27 20:27 | 28.10139 | -15.16301 | 10734 ft | 169 kts | 89° |
| 2026-04-27 20:27 | 28.10101 | -15.14965 | 10986 ft | 171 kts | 88° |
| 2026-04-27 20:28 | 28.10057 | -15.13611 | 11238 ft | 173 kts | 88° |
| 2026-04-27 20:28 | 28.10020 | -15.12242 | 11500 ft | 174 kts | 88° |
| 2026-04-27 20:28 | 28.09995 | -15.11332 | 11663 ft | 175 kts | 88° |
| 2026-04-27 20:28 | 28.09985 | -15.09940 | 11887 ft | 178 kts | 84° |
| 2026-04-27 20:29 | 28.10115 | -15.08013 | 12007 ft | 193 kts | 81° |
| 2026-04-27 20:29 | 28.10250 | -15.06453 | 12043 ft | 205 kts | 81° |
| 2026-04-27 20:29 | 28.10391 | -15.04794 | 12059 ft | 217 kts | 82° |
| 2026-04-27 20:29 | 28.10530 | -15.03053 | 12060 ft | 226 kts | 82° |
| 2026-04-27 20:30 | 28.10619 | -15.01864 | 12064 ft | 231 kts | 83° |
| 2026-04-27 20:30 | 28.10746 | -15.00022 | 12063 ft | 237 kts | 83° |
| 2026-04-27 20:30 | 28.10866 | -14.98131 | 12064 ft | 242 kts | 83° |
| 2026-04-27 20:30 | 28.10986 | -14.96212 | 12061 ft | 246 kts | 84° |
| 2026-04-27 20:31 | 28.11105 | -14.94265 | 12061 ft | 249 kts | 84° |
| 2026-04-27 20:31 | 28.11226 | -14.92299 | 12062 ft | 251 kts | 83° |
| 2026-04-27 20:31 | 28.11355 | -14.90323 | 12058 ft | 252 kts | 83° |
| 2026-04-27 20:31 | 28.11490 | -14.88338 | 12070 ft | 253 kts | 83° |
| 2026-04-27 20:32 | 28.11627 | -14.86370 | 12060 ft | 254 kts | 83° |
| 2026-04-27 20:32 | 28.11768 | -14.84376 | 12060 ft | 254 kts | 83° |
| 2026-04-27 20:32 | 28.11907 | -14.82372 | 12065 ft | 255 kts | 84° |
| 2026-04-27 20:32 | 28.12043 | -14.80369 | 12063 ft | 256 kts | 84° |
| 2026-04-27 20:33 | 28.12183 | -14.78356 | 12065 ft | 256 kts | 83° |
| 2026-04-27 20:33 | 28.12321 | -14.76343 | 12057 ft | 256 kts | 83° |
| 2026-04-27 20:33 | 28.12457 | -14.74333 | 12060 ft | 256 kts | 84° |
| 2026-04-27 20:33 | 28.12592 | -14.72314 | 12064 ft | 256 kts | 84° |
| 2026-04-27 20:34 | 28.12722 | -14.70297 | 12061 ft | 257 kts | 84° |
| 2026-04-27 20:34 | 28.12847 | -14.68328 | 11996 ft | 243 kts | 84° |
| 2026-04-27 20:34 | 28.12952 | -14.66423 | 11156 ft | 243 kts | 84° |
| 2026-04-27 20:34 | 28.13059 | -14.64549 | 10680 ft | 228 kts | 84° |
| 2026-04-27 20:35 | 28.13167 | -14.62836 | 10384 ft | 209 kts | 83° |
| 2026-04-27 20:35 | 28.13280 | -14.61247 | 10097 ft | 196 kts | 83° |
| 2026-04-27 20:35 | 28.13388 | -14.59738 | 9803 ft | 191 kts | 83° |
| 2026-04-27 20:35 | 28.13494 | -14.58243 | 9483 ft | 189 kts | 83° |
| 2026-04-27 20:36 | 28.13599 | -14.56755 | 9185 ft | 189 kts | 82° |
| 2026-04-27 20:36 | 28.13694 | -14.55277 | 8874 ft | 187 kts | 83° |
| 2026-04-27 20:36 | 28.13786 | -14.53808 | 8571 ft | 187 kts | 82° |
| 2026-04-27 20:36 | 28.13872 | -14.52350 | 8274 ft | 185 kts | 82° |
| 2026-04-27 20:37 | 28.13961 | -14.50922 | 7987 ft | 183 kts | 82° |
| 2026-04-27 20:37 | 28.14052 | -14.49484 | 7693 ft | 182 kts | 82° |
| 2026-04-27 20:37 | 28.14148 | -14.48061 | 7399 ft | 180 kts | 81° |
| 2026-04-27 20:37 | 28.14241 | -14.46646 | 7115 ft | 179 kts | 81° |
| 2026-04-27 20:38 | 28.14333 | -14.45237 | 6825 ft | 178 kts | 81° |
| 2026-04-27 20:38 | 28.14428 | -14.43840 | 6547 ft | 176 kts | 80° |
| 2026-04-27 20:38 | 28.14519 | -14.42453 | 6246 ft | 176 kts | 81° |
| 2026-04-27 20:38 | 28.14610 | -14.41069 | 5945 ft | 176 kts | 81° |
| 2026-04-27 20:39 | 28.14739 | -14.39701 | 5646 ft | 174 kts | 77° |
| 2026-04-27 20:39 | 28.14932 | -14.38368 | 5351 ft | 172 kts | 74° |
| 2026-04-27 20:39 | 28.15130 | -14.37030 | 5051 ft | 172 kts | 75° |
| 2026-04-27 20:39 | 28.15330 | -14.35699 | 4752 ft | 171 kts | 75° |
| 2026-04-27 20:40 | 28.15531 | -14.34384 | 4438 ft | 169 kts | 75° |
| 2026-04-27 20:40 | 28.15742 | -14.33062 | 4134 ft | 172 kts | 74° |
| 2026-04-27 20:40 | 28.15983 | -14.31661 | 3842 ft | 190 kts | 73° |
| 2026-04-27 20:40 | 28.16249 | -14.30139 | 3551 ft | 203 kts | 73° |
| 2026-04-27 20:41 | 28.16535 | -14.28537 | 3273 ft | 211 kts | 73° |
| 2026-04-27 20:41 | 28.16842 | -14.26886 | 3012 ft | 217 kts | 73° |
| 2026-04-27 20:41 | 28.17148 | -14.25215 | 2863 ft | 215 kts | 73° |
| 2026-04-27 20:41 | 28.17451 | -14.23599 | 2800 ft | 208 kts | 73° |
| 2026-04-27 20:42 | 28.17760 | -14.22016 | 2787 ft | 203 kts | 72° |
| 2026-04-27 20:42 | 28.18071 | -14.20471 | 2765 ft | 199 kts | 72° |
| 2026-04-27 20:42 | 28.18380 | -14.18954 | 2749 ft | 195 kts | 71° |
| 2026-04-27 20:42 | 28.18684 | -14.17468 | 2753 ft | 191 kts | 71° |
| 2026-04-27 20:43 | 28.18996 | -14.16021 | 2744 ft | 187 kts | 71° |
| 2026-04-27 20:43 | 28.19306 | -14.14620 | 2738 ft | 188 kts | 70° |
| 2026-04-27 20:43 | 28.19671 | -14.13096 | 2758 ft | 211 kts | 69° |
| 2026-04-27 20:43 | 28.20088 | -14.11443 | 2741 ft | 224 kts | 69° |
| 2026-04-27 20:44 | 28.20542 | -14.09709 | 2742 ft | 233 kts | 68° |
| 2026-04-27 20:44 | 28.21027 | -14.07948 | 2755 ft | 241 kts | 68° |
| 2026-04-27 20:44 | 28.21549 | -14.06121 | 2754 ft | 246 kts | 67° |
| 2026-04-27 20:44 | 28.21912 | -14.04899 | 2741 ft | 247 kts | 67° |
| 2026-04-27 20:45 | 28.22508 | -14.03062 | 2764 ft | 249 kts | 65° |
| 2026-04-27 20:45 | 28.23150 | -14.01225 | 2745 ft | 251 kts | 63° |
| 2026-04-27 20:45 | 28.23833 | -13.99428 | 2748 ft | 244 kts | 62° |
| 2026-04-27 20:45 | 28.24575 | -13.97713 | 2749 ft | 239 kts | 58° |
| 2026-04-27 20:46 | 28.25139 | -13.95985 | 2697 ft | 237 kts | 81° |
| 2026-04-27 20:46 | 28.24767 | -13.94163 | 2698 ft | 244 kts | 117° |
| 2026-04-27 20:46 | 28.23882 | -13.92549 | 2731 ft | 237 kts | 110° |
| 2026-04-27 20:46 | 28.23343 | -13.90798 | 2734 ft | 236 kts | 102° |
| 2026-04-27 20:47 | 28.22989 | -13.88980 | 2741 ft | 236 kts | 95° |
| 2026-04-27 20:47 | 28.23092 | -13.87202 | 2744 ft | 227 kts | 64° |
| 2026-04-27 20:47 | 28.24075 | -13.85883 | 2755 ft | 219 kts | 27° |
| 2026-04-27 20:47 | 28.25536 | -13.85563 | 2757 ft | 215 kts | 352° |
| 2026-04-27 20:48 | 28.26987 | -13.85891 | 2743 ft | 211 kts | 348° |
| 2026-04-27 20:48 | 28.28372 | -13.86185 | 2752 ft | 195 kts | 350° |
| 2026-04-27 20:48 | 28.29677 | -13.86417 | 2758 ft | 185 kts | 353° |
| 2026-04-27 20:48 | 28.30937 | -13.86539 | 2719 ft | 176 kts | 354° |
| 2026-04-27 20:49 | 28.32084 | -13.86649 | 2475 ft | 158 kts | 353° |
| 2026-04-27 20:49 | 28.33095 | -13.86749 | 2365 ft | 136 kts | 357° |
| 2026-04-27 20:49 | 28.33992 | -13.86755 | 2251 ft | 126 kts | 359° |
| 2026-04-27 20:49 | 28.34852 | -13.86725 | 2078 ft | 121 kts | 0° |
| 2026-04-27 20:50 | 28.35653 | -13.86656 | 1914 ft | 104 kts | 360° |
| 2026-04-27 20:50 | 28.36318 | -13.86606 | 1701 ft | 93 kts | 359° |
| 2026-04-27 20:50 | 28.37016 | -13.86598 | 1568 ft | 103 kts | 359° |
| 2026-04-27 20:50 | 28.37753 | -13.86601 | 1382 ft | 109 kts | 359° |
| 2026-04-27 20:51 | 28.38521 | -13.86590 | 1212 ft | 110 kts | 0° |
| 2026-04-27 20:51 | 28.39272 | -13.86547 | 1042 ft | 106 kts | 1° |
| 2026-04-27 20:51 | 28.40018 | -13.86480 | 915 ft | 109 kts | 359° |
| 2026-04-27 20:51 | 28.40772 | -13.86444 | 800 ft | 109 kts | 357° |
| 2026-04-27 20:52 | 28.41553 | -13.86476 | 635 ft | 114 kts | 355° |
| 2026-04-27 20:52 | 28.42347 | -13.86454 | 448 ft | 115 kts | 358° |
| 2026-04-27 20:52 | 28.43146 | -13.86422 | 254 ft | 113 kts | 358° |
| 2026-04-27 20:52 | 28.43922 | -13.86415 | 111 ft | 108 kts | 358° |
| 2026-04-27 20:53 | 28.44637 | -13.86395 | 66 ft | 97 kts | 358° |
| 2026-04-27 20:53 | 28.45085 | -13.86393 | 70 ft | 19 kts | 0° |
| 2026-04-27 20:53 | 28.45322 | -13.86383 | 76 ft | 45 kts | 1° |
| 2026-04-27 20:53 | 28.45422 | -13.86402 | 83 ft | 4 kts | 255° |
| 2026-04-27 20:54 | 28.45410 | -13.86499 | 86 ft | 0 kts | 267° |
| 2026-04-27 20:54 | 28.45406 | -13.86543 | 93 ft | 12 kts | 248° |
| 2026-04-27 20:54 | 28.45371 | -13.86641 | 95 ft | 4 kts | 277° |
| 2026-04-27 20:55 | 28.45338 | -13.86736 | 96 ft | 20 kts | 194° |
| 2026-04-27 20:55 | 28.45150 | -13.86741 | 95 ft | 27 kts | 182° |
| 2026-04-27 20:55 | 28.45006 | -13.86748 | 97 ft | 10 kts | 192° |
| 2026-04-27 20:55 | 28.44997 | -13.86779 | 95 ft | 12 kts | 268° |
| 2026-04-27 20:56 | 28.44998 | -13.86847 | 95 ft | 0 kts | 271° |
| 2026-04-27 20:56 | 28.44998 | -13.86846 | 95 ft | 0 kts | 271° |
| 2026-04-27 20:59 | 28.44998 | -13.86845 | 95 ft | 0 kts | 271° |
| 2026-04-27 21:02 | 28.44998 | -13.86844 | 95 ft | 0 kts | 271° |
| 2026-04-27 21:09 | 28.44998 | -13.86843 | 95 ft | 0 kts | 271° |